sensor_id;sensor_type;location;lat;lon;timestamp;P1;durP1;ratioP1;P2;durP2;ratioP2
8938;SDS011;4504;48.810;9.172;2022-07-10T00:00:27;107.27;;;3.33;;
8938;SDS011;4504;48.810;9.172;2022-07-10T00:02:56;104.47;;;2.97;;
8938;SDS011;4504;48.810;9.172;2022-07-10T00:05:23;105.77;;;2.93;;
8938;SDS011;4504;48.810;9.172;2022-07-10T00:07:51;105.90;;;2.97;;
8938;SDS011;4504;48.810;9.172;2022-07-10T00:10:18;105.37;;;2.87;;
8938;SDS011;4504;48.810;9.172;2022-07-10T00:12:49;104.60;;;2.80;;
8938;SDS011;4504;48.810;9.172;2022-07-10T00:15:17;104.87;;;3.30;;
8938;SDS011;4504;48.810;9.172;2022-07-10T00:17:45;105.73;;;3.20;;
8938;SDS011;4504;48.810;9.172;2022-07-10T00:20:12;104.37;;;2.63;;
8938;SDS011;4504;48.810;9.172;2022-07-10T00:22:40;104.30;;;2.60;;
8938;SDS011;4504;48.810;9.172;2022-07-10T00:25:08;105.17;;;3.10;;
8938;SDS011;4504;48.810;9.172;2022-07-10T00:27:37;107.60;;;3.10;;
8938;SDS011;4504;48.810;9.172;2022-07-10T00:30:06;104.33;;;2.53;;
8938;SDS011;4504;48.810;9.172;2022-07-10T00:32:34;104.37;;;3.00;;
8938;SDS011;4504;48.810;9.172;2022-07-10T00:35:02;104.97;;;3.00;;
8938;SDS011;4504;48.810;9.172;2022-07-10T00:37:30;105.80;;;3.07;;
8938;SDS011;4504;48.810;9.172;2022-07-10T00:39:57;113.00;;;3.23;;
8938;SDS011;4504;48.810;9.172;2022-07-10T00:42:25;104.40;;;2.80;;
8938;SDS011;4504;48.810;9.172;2022-07-10T00:44:52;104.33;;;2.77;;
8938;SDS011;4504;48.810;9.172;2022-07-10T00:47:20;104.37;;;2.50;;
8938;SDS011;4504;48.810;9.172;2022-07-10T00:49:48;104.67;;;2.80;;
8938;SDS011;4504;48.810;9.172;2022-07-10T00:52:15;106.40;;;3.10;;
8938;SDS011;4504;48.810;9.172;2022-07-10T00:54:44;105.30;;;2.70;;
8938;SDS011;4504;48.810;9.172;2022-07-10T00:57:16;104.97;;;2.80;;
8938;SDS011;4504;48.810;9.172;2022-07-10T00:59:43;104.40;;;2.90;;
8938;SDS011;4504;48.810;9.172;2022-07-10T01:02:11;106.77;;;2.80;;
8938;SDS011;4504;48.810;9.172;2022-07-10T01:04:42;104.87;;;2.90;;
8938;SDS011;4504;48.810;9.172;2022-07-10T01:07:09;104.60;;;2.90;;
8938;SDS011;4504;48.810;9.172;2022-07-10T01:09:36;105.10;;;2.73;;
8938;SDS011;4504;48.810;9.172;2022-07-10T01:12:04;106.03;;;3.10;;
8938;SDS011;4504;48.810;9.172;2022-07-10T01:14:32;105.80;;;3.27;;
8938;SDS011;4504;48.810;9.172;2022-07-10T01:17:00;107.43;;;2.90;;
8938;SDS011;4504;48.810;9.172;2022-07-10T01:19:27;105.90;;;3.60;;
8938;SDS011;4504;48.810;9.172;2022-07-10T01:21:56;105.10;;;2.80;;
8938;SDS011;4504;48.810;9.172;2022-07-10T01:24:23;104.10;;;2.63;;
8938;SDS011;4504;48.810;9.172;2022-07-10T01:26:50;111.23;;;3.07;;
8938;SDS011;4504;48.810;9.172;2022-07-10T01:29:17;104.97;;;2.83;;
8938;SDS011;4504;48.810;9.172;2022-07-10T01:31:44;108.70;;;3.40;;
8938;SDS011;4504;48.810;9.172;2022-07-10T01:34:11;104.97;;;3.10;;
8938;SDS011;4504;48.810;9.172;2022-07-10T01:36:38;105.50;;;2.90;;
8938;SDS011;4504;48.810;9.172;2022-07-10T01:39:07;104.40;;;2.93;;
8938;SDS011;4504;48.810;9.172;2022-07-10T01:41:34;105.60;;;3.27;;
8938;SDS011;4504;48.810;9.172;2022-07-10T01:44:01;104.33;;;2.83;;
8938;SDS011;4504;48.810;9.172;2022-07-10T01:46:29;106.87;;;3.50;;
8938;SDS011;4504;48.810;9.172;2022-07-10T01:48:56;104.57;;;3.30;;
8938;SDS011;4504;48.810;9.172;2022-07-10T01:55:26;106.07;;;3.27;;
8938;SDS011;4504;48.810;9.172;2022-07-10T01:57:53;105.00;;;3.10;;
8938;SDS011;4504;48.810;9.172;2022-07-10T02:00:20;105.97;;;3.67;;
8938;SDS011;4504;48.810;9.172;2022-07-10T02:02:49;106.10;;;3.43;;
8938;SDS011;4504;48.810;9.172;2022-07-10T02:05:30;105.33;;;3.77;;
8938;SDS011;4504;48.810;9.172;2022-07-10T02:08:02;105.47;;;3.40;;
8938;SDS011;4504;48.810;9.172;2022-07-10T02:10:32;106.80;;;3.63;;
8938;SDS011;4504;48.810;9.172;2022-07-10T02:12:59;106.10;;;3.70;;
8938;SDS011;4504;48.810;9.172;2022-07-10T02:15:26;106.40;;;3.27;;
8938;SDS011;4504;48.810;9.172;2022-07-10T02:17:53;110.30;;;4.40;;
8938;SDS011;4504;48.810;9.172;2022-07-10T02:20:20;106.27;;;3.33;;
8938;SDS011;4504;48.810;9.172;2022-07-10T02:22:47;105.87;;;4.13;;
8938;SDS011;4504;48.810;9.172;2022-07-10T02:25:14;109.50;;;4.07;;
8938;SDS011;4504;48.810;9.172;2022-07-10T02:27:42;106.40;;;3.90;;
8938;SDS011;4504;48.810;9.172;2022-07-10T02:30:09;109.17;;;4.77;;
8938;SDS011;4504;48.810;9.172;2022-07-10T02:32:36;106.63;;;4.10;;
8938;SDS011;4504;48.810;9.172;2022-07-10T02:35:03;108.10;;;4.27;;
8938;SDS011;4504;48.810;9.172;2022-07-10T02:37:31;106.73;;;3.83;;
8938;SDS011;4504;48.810;9.172;2022-07-10T02:39:58;109.73;;;4.73;;
8938;SDS011;4504;48.810;9.172;2022-07-10T02:42:24;107.37;;;4.63;;
8938;SDS011;4504;48.810;9.172;2022-07-10T02:44:53;109.10;;;4.63;;
8938;SDS011;4504;48.810;9.172;2022-07-10T02:47:20;109.03;;;4.50;;
8938;SDS011;4504;48.810;9.172;2022-07-10T02:49:47;111.87;;;5.10;;
8938;SDS011;4504;48.810;9.172;2022-07-10T02:52:13;108.23;;;4.47;;
8938;SDS011;4504;48.810;9.172;2022-07-10T02:54:40;109.00;;;4.70;;
8938;SDS011;4504;48.810;9.172;2022-07-10T02:57:07;106.87;;;4.13;;
8938;SDS011;4504;48.810;9.172;2022-07-10T02:59:34;107.97;;;4.40;;
8938;SDS011;4504;48.810;9.172;2022-07-10T03:02:03;106.60;;;4.30;;
8938;SDS011;4504;48.810;9.172;2022-07-10T03:04:31;107.57;;;4.60;;
8938;SDS011;4504;48.810;9.172;2022-07-10T03:06:57;107.53;;;4.10;;
8938;SDS011;4504;48.810;9.172;2022-07-10T03:09:24;107.87;;;4.67;;
8938;SDS011;4504;48.810;9.172;2022-07-10T03:11:52;107.30;;;4.30;;
8938;SDS011;4504;48.810;9.172;2022-07-10T03:14:19;106.77;;;3.73;;
8938;SDS011;4504;48.810;9.172;2022-07-10T03:16:46;107.70;;;4.63;;
8938;SDS011;4504;48.810;9.172;2022-07-10T03:19:14;107.30;;;4.60;;
8938;SDS011;4504;48.810;9.172;2022-07-10T03:21:41;108.57;;;4.63;;
8938;SDS011;4504;48.810;9.172;2022-07-10T03:24:08;109.33;;;4.20;;
8938;SDS011;4504;48.810;9.172;2022-07-10T03:26:34;107.37;;;3.97;;
8938;SDS011;4504;48.810;9.172;2022-07-10T03:29:01;109.37;;;4.70;;
8938;SDS011;4504;48.810;9.172;2022-07-10T03:31:28;107.47;;;4.37;;
8938;SDS011;4504;48.810;9.172;2022-07-10T03:33:55;109.00;;;4.60;;
8938;SDS011;4504;48.810;9.172;2022-07-10T03:36:23;108.10;;;4.70;;
8938;SDS011;4504;48.810;9.172;2022-07-10T03:38:50;107.97;;;4.50;;
8938;SDS011;4504;48.810;9.172;2022-07-10T03:41:17;107.90;;;4.30;;
8938;SDS011;4504;48.810;9.172;2022-07-10T03:43:44;107.17;;;4.50;;
8938;SDS011;4504;48.810;9.172;2022-07-10T03:46:11;107.13;;;4.50;;
8938;SDS011;4504;48.810;9.172;2022-07-10T03:48:38;109.83;;;4.43;;
8938;SDS011;4504;48.810;9.172;2022-07-10T03:51:05;111.47;;;3.87;;
8938;SDS011;4504;48.810;9.172;2022-07-10T03:53:33;107.43;;;4.50;;
8938;SDS011;4504;48.810;9.172;2022-07-10T03:56:01;106.97;;;4.00;;
8938;SDS011;4504;48.810;9.172;2022-07-10T03:58:28;107.47;;;4.17;;
8938;SDS011;4504;48.810;9.172;2022-07-10T04:00:54;108.07;;;4.30;;
8938;SDS011;4504;48.810;9.172;2022-07-10T04:03:21;107.40;;;4.20;;
8938;SDS011;4504;48.810;9.172;2022-07-10T04:05:49;106.37;;;3.77;;
8938;SDS011;4504;48.810;9.172;2022-07-10T04:08:15;108.57;;;4.13;;
8938;SDS011;4504;48.810;9.172;2022-07-10T04:10:44;107.43;;;4.13;;
8938;SDS011;4504;48.810;9.172;2022-07-10T04:13:11;108.10;;;4.30;;
8938;SDS011;4504;48.810;9.172;2022-07-10T04:15:37;107.83;;;4.40;;
8938;SDS011;4504;48.810;9.172;2022-07-10T04:18:04;106.90;;;4.00;;
8938;SDS011;4504;48.810;9.172;2022-07-10T04:20:31;107.20;;;3.90;;
8938;SDS011;4504;48.810;9.172;2022-07-10T04:22:58;108.67;;;4.57;;
8938;SDS011;4504;48.810;9.172;2022-07-10T04:25:25;107.70;;;4.20;;
8938;SDS011;4504;48.810;9.172;2022-07-10T04:27:53;108.17;;;3.93;;
8938;SDS011;4504;48.810;9.172;2022-07-10T04:30:21;107.53;;;4.17;;
8938;SDS011;4504;48.810;9.172;2022-07-10T04:32:48;108.10;;;4.30;;
8938;SDS011;4504;48.810;9.172;2022-07-10T04:35:14;107.60;;;4.03;;
8938;SDS011;4504;48.810;9.172;2022-07-10T04:37:41;109.33;;;4.17;;
8938;SDS011;4504;48.810;9.172;2022-07-10T04:40:09;109.77;;;4.07;;
8938;SDS011;4504;48.810;9.172;2022-07-10T04:42:37;109.97;;;4.23;;
8938;SDS011;4504;48.810;9.172;2022-07-10T04:45:06;109.30;;;4.20;;
8938;SDS011;4504;48.810;9.172;2022-07-10T04:47:33;105.67;;;3.77;;
8938;SDS011;4504;48.810;9.172;2022-07-10T04:50:00;109.87;;;3.60;;
8938;SDS011;4504;48.810;9.172;2022-07-10T04:52:27;108.97;;;3.93;;
8938;SDS011;4504;48.810;9.172;2022-07-10T04:54:54;106.53;;;3.77;;
8938;SDS011;4504;48.810;9.172;2022-07-10T04:57:21;108.10;;;3.60;;
8938;SDS011;4504;48.810;9.172;2022-07-10T04:59:48;107.67;;;3.60;;
8938;SDS011;4504;48.810;9.172;2022-07-10T05:02:16;108.03;;;3.90;;
8938;SDS011;4504;48.810;9.172;2022-07-10T05:04:43;108.30;;;3.80;;
8938;SDS011;4504;48.810;9.172;2022-07-10T05:07:10;107.00;;;3.80;;
8938;SDS011;4504;48.810;9.172;2022-07-10T05:09:37;106.77;;;3.23;;
8938;SDS011;4504;48.810;9.172;2022-07-10T05:12:04;106.77;;;3.30;;
8938;SDS011;4504;48.810;9.172;2022-07-10T05:14:32;106.10;;;3.07;;
8938;SDS011;4504;48.810;9.172;2022-07-10T05:16:59;107.37;;;3.60;;
8938;SDS011;4504;48.810;9.172;2022-07-10T05:19:27;105.40;;;3.10;;
8938;SDS011;4504;48.810;9.172;2022-07-10T05:21:54;105.77;;;3.07;;
8938;SDS011;4504;48.810;9.172;2022-07-10T05:24:21;106.20;;;3.20;;
8938;SDS011;4504;48.810;9.172;2022-07-10T05:26:48;106.20;;;3.30;;
8938;SDS011;4504;48.810;9.172;2022-07-10T05:29:15;106.77;;;3.30;;
8938;SDS011;4504;48.810;9.172;2022-07-10T05:31:42;107.70;;;3.53;;
8938;SDS011;4504;48.810;9.172;2022-07-10T05:34:09;113.43;;;3.00;;
8938;SDS011;4504;48.810;9.172;2022-07-10T05:36:37;105.90;;;3.23;;
8938;SDS011;4504;48.810;9.172;2022-07-10T05:39:04;106.47;;;3.23;;
8938;SDS011;4504;48.810;9.172;2022-07-10T05:41:31;106.20;;;2.80;;
8938;SDS011;4504;48.810;9.172;2022-07-10T05:43:58;107.20;;;2.93;;
8938;SDS011;4504;48.810;9.172;2022-07-10T05:46:26;106.00;;;2.67;;
8938;SDS011;4504;48.810;9.172;2022-07-10T05:48:53;105.60;;;2.67;;
8938;SDS011;4504;48.810;9.172;2022-07-10T05:51:20;105.07;;;2.70;;
8938;SDS011;4504;48.810;9.172;2022-07-10T05:53:48;105.90;;;2.70;;
8938;SDS011;4504;48.810;9.172;2022-07-10T05:56:15;106.10;;;2.80;;
8938;SDS011;4504;48.810;9.172;2022-07-10T05:58:42;105.33;;;2.80;;
8938;SDS011;4504;48.810;9.172;2022-07-10T06:01:09;106.17;;;2.50;;
8938;SDS011;4504;48.810;9.172;2022-07-10T06:03:36;106.03;;;2.60;;
8938;SDS011;4504;48.810;9.172;2022-07-10T06:06:03;106.53;;;2.67;;
8938;SDS011;4504;48.810;9.172;2022-07-10T06:08:30;106.17;;;2.73;;
8938;SDS011;4504;48.810;9.172;2022-07-10T06:10:59;106.43;;;2.60;;
8938;SDS011;4504;48.810;9.172;2022-07-10T06:13:26;105.47;;;2.83;;
8938;SDS011;4504;48.810;9.172;2022-07-10T06:15:53;105.40;;;3.07;;
8938;SDS011;4504;48.810;9.172;2022-07-10T06:18:20;106.97;;;2.80;;
8938;SDS011;4504;48.810;9.172;2022-07-10T06:20:47;105.70;;;2.50;;
8938;SDS011;4504;48.810;9.172;2022-07-10T06:23:14;105.87;;;2.50;;
8938;SDS011;4504;48.810;9.172;2022-07-10T06:25:41;105.97;;;2.63;;
8938;SDS011;4504;48.810;9.172;2022-07-10T06:28:09;105.87;;;2.63;;
8938;SDS011;4504;48.810;9.172;2022-07-10T06:30:36;106.50;;;2.77;;
8938;SDS011;4504;48.810;9.172;2022-07-10T06:33:03;105.80;;;2.70;;
8938;SDS011;4504;48.810;9.172;2022-07-10T06:35:30;106.57;;;2.83;;
8938;SDS011;4504;48.810;9.172;2022-07-10T06:37:58;105.80;;;2.70;;
8938;SDS011;4504;48.810;9.172;2022-07-10T06:40:24;104.77;;;2.53;;
8938;SDS011;4504;48.810;9.172;2022-07-10T06:42:52;105.60;;;2.40;;
8938;SDS011;4504;48.810;9.172;2022-07-10T06:45:21;109.80;;;2.70;;
8938;SDS011;4504;48.810;9.172;2022-07-10T06:47:48;106.07;;;2.50;;
8938;SDS011;4504;48.810;9.172;2022-07-10T06:50:24;105.17;;;2.40;;
8938;SDS011;4504;48.810;9.172;2022-07-10T06:52:54;105.50;;;2.83;;
8938;SDS011;4504;48.810;9.172;2022-07-10T06:55:22;105.00;;;2.57;;
8938;SDS011;4504;48.810;9.172;2022-07-10T06:57:50;107.37;;;2.67;;
8938;SDS011;4504;48.810;9.172;2022-07-10T07:00:17;107.97;;;2.73;;
8938;SDS011;4504;48.810;9.172;2022-07-10T07:02:46;105.10;;;2.50;;
8938;SDS011;4504;48.810;9.172;2022-07-10T07:05:13;110.10;;;2.60;;
8938;SDS011;4504;48.810;9.172;2022-07-10T07:07:40;105.10;;;2.60;;
8938;SDS011;4504;48.810;9.172;2022-07-10T07:10:08;105.77;;;2.83;;
8938;SDS011;4504;48.810;9.172;2022-07-10T07:12:36;105.70;;;2.37;;
8938;SDS011;4504;48.810;9.172;2022-07-10T07:15:04;105.10;;;2.50;;
8938;SDS011;4504;48.810;9.172;2022-07-10T07:17:32;105.90;;;2.70;;
8938;SDS011;4504;48.810;9.172;2022-07-10T07:20:02;105.80;;;2.40;;
8938;SDS011;4504;48.810;9.172;2022-07-10T07:22:47;105.60;;;2.63;;
8938;SDS011;4504;48.810;9.172;2022-07-10T07:25:32;105.97;;;2.70;;
8938;SDS011;4504;48.810;9.172;2022-07-10T07:27:59;104.63;;;2.60;;
8938;SDS011;4504;48.810;9.172;2022-07-10T07:30:26;104.90;;;2.43;;
8938;SDS011;4504;48.810;9.172;2022-07-10T07:32:53;105.30;;;2.20;;
8938;SDS011;4504;48.810;9.172;2022-07-10T07:35:21;105.53;;;2.50;;
8938;SDS011;4504;48.810;9.172;2022-07-10T07:37:48;106.10;;;2.80;;
8938;SDS011;4504;48.810;9.172;2022-07-10T07:40:17;104.67;;;2.30;;
8938;SDS011;4504;48.810;9.172;2022-07-10T07:42:46;105.67;;;2.63;;
8938;SDS011;4504;48.810;9.172;2022-07-10T07:45:13;105.73;;;2.50;;
8938;SDS011;4504;48.810;9.172;2022-07-10T07:47:44;105.37;;;2.40;;
8938;SDS011;4504;48.810;9.172;2022-07-10T07:50:12;104.90;;;2.50;;
8938;SDS011;4504;48.810;9.172;2022-07-10T07:52:41;105.07;;;2.30;;
8938;SDS011;4504;48.810;9.172;2022-07-10T07:55:08;104.37;;;2.70;;
8938;SDS011;4504;48.810;9.172;2022-07-10T07:57:36;104.37;;;2.23;;
8938;SDS011;4504;48.810;9.172;2022-07-10T08:00:04;107.87;;;2.43;;
8938;SDS011;4504;48.810;9.172;2022-07-10T08:02:37;104.97;;;2.30;;
8938;SDS011;4504;48.810;9.172;2022-07-10T08:05:05;103.07;;;2.17;;
8938;SDS011;4504;48.810;9.172;2022-07-10T08:07:33;118.30;;;3.10;;
8938;SDS011;4504;48.810;9.172;2022-07-10T08:10:02;107.00;;;2.70;;
8938;SDS011;4504;48.810;9.172;2022-07-10T08:12:30;106.30;;;2.43;;
8938;SDS011;4504;48.810;9.172;2022-07-10T08:14:57;105.07;;;2.77;;
8938;SDS011;4504;48.810;9.172;2022-07-10T08:17:24;103.50;;;2.70;;
8938;SDS011;4504;48.810;9.172;2022-07-10T08:19:51;105.70;;;2.50;;
8938;SDS011;4504;48.810;9.172;2022-07-10T08:22:18;105.27;;;2.70;;
8938;SDS011;4504;48.810;9.172;2022-07-10T08:24:45;106.63;;;2.60;;
8938;SDS011;4504;48.810;9.172;2022-07-10T08:27:13;111.50;;;2.50;;
8938;SDS011;4504;48.810;9.172;2022-07-10T08:29:41;105.57;;;2.60;;
8938;SDS011;4504;48.810;9.172;2022-07-10T08:32:08;104.77;;;2.53;;
8938;SDS011;4504;48.810;9.172;2022-07-10T08:34:35;104.87;;;2.50;;
8938;SDS011;4504;48.810;9.172;2022-07-10T08:37:02;103.77;;;2.17;;
8938;SDS011;4504;48.810;9.172;2022-07-10T08:39:30;104.63;;;2.20;;
8938;SDS011;4504;48.810;9.172;2022-07-10T08:41:57;103.50;;;2.13;;
8938;SDS011;4504;48.810;9.172;2022-07-10T08:44:26;104.40;;;2.30;;
8938;SDS011;4504;48.810;9.172;2022-07-10T08:46:55;104.93;;;2.57;;
8938;SDS011;4504;48.810;9.172;2022-07-10T08:49:23;104.40;;;2.30;;
8938;SDS011;4504;48.810;9.172;2022-07-10T08:51:54;104.47;;;2.10;;
8938;SDS011;4504;48.810;9.172;2022-07-10T08:54:23;103.77;;;2.33;;
8938;SDS011;4504;48.810;9.172;2022-07-10T08:56:53;106.33;;;2.67;;
8938;SDS011;4504;48.810;9.172;2022-07-10T08:59:22;104.60;;;2.70;;
8938;SDS011;4504;48.810;9.172;2022-07-10T09:01:50;106.33;;;3.07;;
8938;SDS011;4504;48.810;9.172;2022-07-10T09:04:19;103.60;;;2.40;;
8938;SDS011;4504;48.810;9.172;2022-07-10T09:06:47;105.30;;;2.53;;
8938;SDS011;4504;48.810;9.172;2022-07-10T09:09:14;103.90;;;2.37;;
8938;SDS011;4504;48.810;9.172;2022-07-10T09:11:41;105.20;;;2.43;;
8938;SDS011;4504;48.810;9.172;2022-07-10T09:14:09;103.30;;;2.00;;
8938;SDS011;4504;48.810;9.172;2022-07-10T09:16:38;103.10;;;2.53;;
8938;SDS011;4504;48.810;9.172;2022-07-10T09:19:17;104.77;;;2.60;;
8938;SDS011;4504;48.810;9.172;2022-07-10T09:21:46;105.07;;;2.60;;
8938;SDS011;4504;48.810;9.172;2022-07-10T09:24:14;103.67;;;2.20;;
8938;SDS011;4504;48.810;9.172;2022-07-10T09:26:47;103.50;;;2.43;;
8938;SDS011;4504;48.810;9.172;2022-07-10T09:29:26;104.63;;;2.67;;
8938;SDS011;4504;48.810;9.172;2022-07-10T09:31:53;103.40;;;2.50;;
8938;SDS011;4504;48.810;9.172;2022-07-10T09:34:36;102.10;;;2.13;;
8938;SDS011;4504;48.810;9.172;2022-07-10T09:37:16;103.17;;;2.20;;
8938;SDS011;4504;48.810;9.172;2022-07-10T09:39:51;103.07;;;2.13;;
8938;SDS011;4504;48.810;9.172;2022-07-10T09:42:28;104.90;;;2.17;;
8938;SDS011;4504;48.810;9.172;2022-07-10T09:45:16;104.43;;;2.20;;
8938;SDS011;4504;48.810;9.172;2022-07-10T09:47:45;104.17;;;2.20;;
8938;SDS011;4504;48.810;9.172;2022-07-10T09:50:22;102.57;;;2.10;;
8938;SDS011;4504;48.810;9.172;2022-07-10T09:52:51;103.87;;;2.27;;
8938;SDS011;4504;48.810;9.172;2022-07-10T09:55:20;104.10;;;2.50;;
8938;SDS011;4504;48.810;9.172;2022-07-10T09:57:50;103.70;;;2.20;;
8938;SDS011;4504;48.810;9.172;2022-07-10T10:00:22;104.43;;;2.63;;
8938;SDS011;4504;48.810;9.172;2022-07-10T10:02:51;104.50;;;2.50;;
8938;SDS011;4504;48.810;9.172;2022-07-10T10:05:23;103.97;;;2.37;;
8938;SDS011;4504;48.810;9.172;2022-07-10T10:07:56;103.03;;;2.50;;
8938;SDS011;4504;48.810;9.172;2022-07-10T10:10:24;103.67;;;2.20;;
8938;SDS011;4504;48.810;9.172;2022-07-10T10:12:52;102.97;;;2.23;;
8938;SDS011;4504;48.810;9.172;2022-07-10T10:15:24;104.67;;;2.33;;
8938;SDS011;4504;48.810;9.172;2022-07-10T10:17:52;101.90;;;1.80;;
8938;SDS011;4504;48.810;9.172;2022-07-10T10:20:20;104.17;;;2.10;;
8938;SDS011;4504;48.810;9.172;2022-07-10T10:23:04;101.97;;;2.40;;
8938;SDS011;4504;48.810;9.172;2022-07-10T10:25:32;103.43;;;2.40;;
8938;SDS011;4504;48.810;9.172;2022-07-10T10:28:00;103.47;;;2.30;;
8938;SDS011;4504;48.810;9.172;2022-07-10T10:30:28;103.97;;;2.50;;
8938;SDS011;4504;48.810;9.172;2022-07-10T10:32:56;104.10;;;2.63;;
8938;SDS011;4504;48.810;9.172;2022-07-10T10:35:53;106.40;;;2.30;;
8938;SDS011;4504;48.810;9.172;2022-07-10T10:38:20;105.90;;;2.10;;
8938;SDS011;4504;48.810;9.172;2022-07-10T10:40:47;102.73;;;2.53;;
8938;SDS011;4504;48.810;9.172;2022-07-10T10:43:15;104.53;;;2.37;;
8938;SDS011;4504;48.810;9.172;2022-07-10T10:45:46;103.17;;;2.30;;
8938;SDS011;4504;48.810;9.172;2022-07-10T10:48:14;103.10;;;2.20;;
8938;SDS011;4504;48.810;9.172;2022-07-10T10:50:42;102.60;;;2.10;;
8938;SDS011;4504;48.810;9.172;2022-07-10T10:53:14;109.70;;;2.50;;
8938;SDS011;4504;48.810;9.172;2022-07-10T10:58:50;102.60;;;2.20;;
8938;SDS011;4504;48.810;9.172;2022-07-10T11:01:24;102.63;;;2.03;;
8938;SDS011;4504;48.810;9.172;2022-07-10T11:04:17;104.67;;;2.47;;
8938;SDS011;4504;48.810;9.172;2022-07-10T11:06:46;104.10;;;2.30;;
8938;SDS011;4504;48.810;9.172;2022-07-10T11:09:21;102.87;;;2.07;;
8938;SDS011;4504;48.810;9.172;2022-07-10T11:11:57;105.00;;;2.10;;
8938;SDS011;4504;48.810;9.172;2022-07-10T11:14:28;103.63;;;2.53;;
8938;SDS011;4504;48.810;9.172;2022-07-10T11:16:56;106.03;;;2.60;;
8938;SDS011;4504;48.810;9.172;2022-07-10T11:19:24;106.17;;;2.00;;
8938;SDS011;4504;48.810;9.172;2022-07-10T11:21:58;104.00;;;2.30;;
8938;SDS011;4504;48.810;9.172;2022-07-10T11:24:47;102.77;;;2.17;;
8938;SDS011;4504;48.810;9.172;2022-07-10T11:30:12;103.33;;;2.10;;
8938;SDS011;4504;48.810;9.172;2022-07-10T11:32:39;103.63;;;2.40;;
8938;SDS011;4504;48.810;9.172;2022-07-10T11:35:06;102.97;;;2.10;;
8938;SDS011;4504;48.810;9.172;2022-07-10T11:37:38;102.20;;;2.03;;
8938;SDS011;4504;48.810;9.172;2022-07-10T11:40:15;103.60;;;2.00;;
8938;SDS011;4504;48.810;9.172;2022-07-10T11:42:48;102.20;;;1.93;;
8938;SDS011;4504;48.810;9.172;2022-07-10T11:45:25;102.33;;;1.97;;
8938;SDS011;4504;48.810;9.172;2022-07-10T11:47:54;102.87;;;2.00;;
8938;SDS011;4504;48.810;9.172;2022-07-10T11:50:21;100.97;;;1.80;;
8938;SDS011;4504;48.810;9.172;2022-07-10T11:52:49;103.37;;;2.03;;
8938;SDS011;4504;48.810;9.172;2022-07-10T11:55:17;103.07;;;2.20;;
8938;SDS011;4504;48.810;9.172;2022-07-10T11:57:46;103.47;;;2.10;;
8938;SDS011;4504;48.810;9.172;2022-07-10T12:00:21;103.17;;;2.00;;
8938;SDS011;4504;48.810;9.172;2022-07-10T12:02:49;103.90;;;2.10;;
8938;SDS011;4504;48.810;9.172;2022-07-10T12:05:29;103.20;;;1.90;;
8938;SDS011;4504;48.810;9.172;2022-07-10T12:08:02;102.47;;;2.00;;
8938;SDS011;4504;48.810;9.172;2022-07-10T12:10:30;101.27;;;2.10;;
8938;SDS011;4504;48.810;9.172;2022-07-10T12:13:05;103.07;;;1.80;;
8938;SDS011;4504;48.810;9.172;2022-07-10T12:15:33;102.73;;;1.90;;
8938;SDS011;4504;48.810;9.172;2022-07-10T12:18:03;100.70;;;1.77;;
8938;SDS011;4504;48.810;9.172;2022-07-10T12:20:30;102.20;;;1.80;;
8938;SDS011;4504;48.810;9.172;2022-07-10T12:22:59;102.40;;;1.77;;
8938;SDS011;4504;48.810;9.172;2022-07-10T12:25:27;100.77;;;1.80;;
8938;SDS011;4504;48.810;9.172;2022-07-10T12:27:55;102.20;;;2.07;;
8938;SDS011;4504;48.810;9.172;2022-07-10T12:30:23;101.20;;;1.90;;
8938;SDS011;4504;48.810;9.172;2022-07-10T12:32:50;102.07;;;1.90;;
8938;SDS011;4504;48.810;9.172;2022-07-10T12:35:17;102.53;;;1.70;;
8938;SDS011;4504;48.810;9.172;2022-07-10T12:37:47;102.23;;;1.77;;
8938;SDS011;4504;48.810;9.172;2022-07-10T12:43:01;101.60;;;1.50;;
8938;SDS011;4504;48.810;9.172;2022-07-10T12:45:28;101.87;;;1.70;;
8938;SDS011;4504;48.810;9.172;2022-07-10T12:47:55;103.47;;;1.97;;
8938;SDS011;4504;48.810;9.172;2022-07-10T12:50:22;100.27;;;1.80;;
8938;SDS011;4504;48.810;9.172;2022-07-10T12:52:51;101.10;;;1.60;;
8938;SDS011;4504;48.810;9.172;2022-07-10T12:55:38;106.60;;;1.70;;
8938;SDS011;4504;48.810;9.172;2022-07-10T12:58:07;101.77;;;1.90;;
8938;SDS011;4504;48.810;9.172;2022-07-10T13:00:42;101.47;;;1.73;;
8938;SDS011;4504;48.810;9.172;2022-07-10T13:03:16;99.60;;;1.63;;
8938;SDS011;4504;48.810;9.172;2022-07-10T13:05:44;101.20;;;1.80;;
8938;SDS011;4504;48.810;9.172;2022-07-10T13:08:12;100.07;;;1.70;;
8938;SDS011;4504;48.810;9.172;2022-07-10T13:10:43;101.27;;;1.70;;
8938;SDS011;4504;48.810;9.172;2022-07-10T13:13:11;100.87;;;1.80;;
8938;SDS011;4504;48.810;9.172;2022-07-10T13:15:38;101.93;;;1.70;;
8938;SDS011;4504;48.810;9.172;2022-07-10T13:18:12;102.37;;;1.80;;
8938;SDS011;4504;48.810;9.172;2022-07-10T13:20:39;101.60;;;1.77;;
8938;SDS011;4504;48.810;9.172;2022-07-10T13:23:07;101.50;;;1.80;;
8938;SDS011;4504;48.810;9.172;2022-07-10T13:25:34;101.23;;;1.70;;
8938;SDS011;4504;48.810;9.172;2022-07-10T13:28:04;102.93;;;2.10;;
8938;SDS011;4504;48.810;9.172;2022-07-10T13:30:32;101.10;;;1.70;;
8938;SDS011;4504;48.810;9.172;2022-07-10T13:32:59;103.77;;;2.00;;
8938;SDS011;4504;48.810;9.172;2022-07-10T13:35:27;101.80;;;1.63;;
8938;SDS011;4504;48.810;9.172;2022-07-10T13:37:54;101.47;;;1.70;;
8938;SDS011;4504;48.810;9.172;2022-07-10T13:40:25;101.87;;;1.80;;
8938;SDS011;4504;48.810;9.172;2022-07-10T13:42:52;101.70;;;2.10;;
8938;SDS011;4504;48.810;9.172;2022-07-10T13:45:20;101.60;;;1.70;;
8938;SDS011;4504;48.810;9.172;2022-07-10T13:47:48;100.30;;;1.77;;
8938;SDS011;4504;48.810;9.172;2022-07-10T13:50:15;101.90;;;1.70;;
8938;SDS011;4504;48.810;9.172;2022-07-10T13:52:42;102.30;;;1.70;;
8938;SDS011;4504;48.810;9.172;2022-07-10T13:55:09;99.90;;;1.80;;
8938;SDS011;4504;48.810;9.172;2022-07-10T13:57:38;107.77;;;1.63;;
8938;SDS011;4504;48.810;9.172;2022-07-10T14:00:05;99.97;;;1.70;;
8938;SDS011;4504;48.810;9.172;2022-07-10T14:02:40;102.47;;;2.00;;
8938;SDS011;4504;48.810;9.172;2022-07-10T14:05:07;100.47;;;1.70;;
8938;SDS011;4504;48.810;9.172;2022-07-10T14:07:35;101.30;;;1.80;;
8938;SDS011;4504;48.810;9.172;2022-07-10T14:10:02;100.57;;;1.80;;
8938;SDS011;4504;48.810;9.172;2022-07-10T14:12:29;101.40;;;1.70;;
8938;SDS011;4504;48.810;9.172;2022-07-10T14:14:58;102.00;;;1.83;;
8938;SDS011;4504;48.810;9.172;2022-07-10T14:17:25;101.60;;;1.80;;
8938;SDS011;4504;48.810;9.172;2022-07-10T14:19:54;101.70;;;1.97;;
8938;SDS011;4504;48.810;9.172;2022-07-10T14:22:21;102.10;;;1.80;;
8938;SDS011;4504;48.810;9.172;2022-07-10T14:24:49;111.63;;;2.10;;
8938;SDS011;4504;48.810;9.172;2022-07-10T14:27:16;100.50;;;1.70;;
8938;SDS011;4504;48.810;9.172;2022-07-10T14:29:43;102.27;;;2.03;;
8938;SDS011;4504;48.810;9.172;2022-07-10T14:32:10;101.03;;;1.90;;
8938;SDS011;4504;48.810;9.172;2022-07-10T14:34:37;101.60;;;1.80;;
8938;SDS011;4504;48.810;9.172;2022-07-10T14:37:05;101.80;;;1.90;;
8938;SDS011;4504;48.810;9.172;2022-07-10T14:39:32;101.57;;;1.60;;
8938;SDS011;4504;48.810;9.172;2022-07-10T14:41:59;100.67;;;1.90;;
8938;SDS011;4504;48.810;9.172;2022-07-10T14:44:26;100.10;;;1.80;;
8938;SDS011;4504;48.810;9.172;2022-07-10T14:46:53;102.40;;;1.90;;
8938;SDS011;4504;48.810;9.172;2022-07-10T14:49:20;103.63;;;1.70;;
8938;SDS011;4504;48.810;9.172;2022-07-10T14:51:47;100.77;;;1.60;;
8938;SDS011;4504;48.810;9.172;2022-07-10T14:54:15;100.13;;;1.50;;
8938;SDS011;4504;48.810;9.172;2022-07-10T14:56:42;102.87;;;2.00;;
8938;SDS011;4504;48.810;9.172;2022-07-10T14:59:09;101.77;;;1.77;;
8938;SDS011;4504;48.810;9.172;2022-07-10T15:01:36;100.17;;;1.70;;
8938;SDS011;4504;48.810;9.172;2022-07-10T15:04:03;100.87;;;1.73;;
8938;SDS011;4504;48.810;9.172;2022-07-10T15:06:30;100.77;;;1.50;;
8938;SDS011;4504;48.810;9.172;2022-07-10T15:08:57;99.90;;;1.70;;